Time;durP1;ratioP1;P1;durP2;ratioP2;P2;SDS_P1;SDS_P2;PMS_P1;PMS_P2;Temp;Humidity;BMP_temperature;BMP_pressure;BME280_temperature;BME280_humidity;BME280_pressure;Samples;Min_cycle;Max_cycle;Signal;HPM_P1;HPM_P2
2021/10/15 00:00:53;;;;;;;2.45;2.09;;;;;;;19.77;63.22;100890.08;;;;-59
2021/10/15 00:03:53;;;;;;;2.19;1.94;;;;;;;19.76;63.28;100888.86;;;;-59
2021/10/15 00:06:53;;;;;;;2.39;2.05;;;;;;;19.76;63.29;100890.24;;;;-59
2021/10/15 00:09:53;;;;;;;3.43;2.03;;;;;;;19.75;63.18;100886.64;;;;-59
2021/10/15 00:12:53;;;;;;;2.59;2.05;;;;;;;19.73;63.26;100885.88;;;;-58
2021/10/15 00:15:53;;;;;;;2.27;2.07;;;;;;;19.73;63.28;100889.86;;;;-59
2021/10/15 00:18:53;;;;;;;2.16;1.95;;;;;;;19.71;63.36;100888.95;;;;-59
2021/10/15 00:21:53;;;;;;;2.10;1.91;;;;;;;19.70;63.27;100887.97;;;;-59
2021/10/15 00:24:53;;;;;;;2.03;1.91;;;;;;;19.70;63.22;100885.20;;;;-51
2021/10/15 00:27:53;;;;;;;2.45;2.13;;;;;;;19.68;63.29;100885.64;;;;-51
2021/10/15 00:30:53;;;;;;;2.29;2.09;;;;;;;19.68;63.36;100887.67;;;;-51
2021/10/15 00:33:53;;;;;;;2.01;1.84;;;;;;;19.67;63.36;100887.27;;;;-52
2021/10/15 00:36:53;;;;;;;2.34;1.84;;;;;;;19.65;63.38;100887.08;;;;-53
2021/10/15 00:39:53;;;;;;;2.25;2.05;;;;;;;19.65;63.27;100884.13;;;;-51
2021/10/15 00:42:53;;;;;;;1.96;1.86;;;;;;;19.64;63.35;100883.39;;;;-58
2021/10/15 00:45:53;;;;;;;2.07;1.87;;;;;;;19.62;63.36;100880.68;;;;-59
2021/10/15 00:48:53;;;;;;;1.81;1.71;;;;;;;19.61;63.42;100873.83;;;;-52
2021/10/15 00:51:53;;;;;;;2.09;1.91;;;;;;;19.61;63.27;100872.85;;;;-51
2021/10/15 00:54:53;;;;;;;2.07;1.89;;;;;;;19.59;63.42;100864.13;;;;-51
2021/10/15 00:57:53;;;;;;;2.13;1.93;;;;;;;19.58;63.41;100859.73;;;;-51
2021/10/15 01:00:53;;;;;;;2.15;1.94;;;;;;;19.57;63.43;100854.45;;;;-51
2021/10/15 01:03:53;;;;;;;2.32;2.05;;;;;;;19.58;63.42;100850.47;;;;-52
2021/10/15 01:06:53;;;;;;;2.00;1.90;;;;;;;19.55;63.41;100843.70;;;;-59
2021/10/15 01:09:53;;;;;;;2.33;2.11;;;;;;;19.55;63.37;100840.77;;;;-58
2021/10/15 01:12:53;;;;;;;2.05;1.87;;;;;;;19.55;63.43;100839.14;;;;-58
2021/10/15 01:15:53;;;;;;;2.11;1.91;;;;;;;19.54;63.33;100835.70;;;;-59
2021/10/15 01:18:53;;;;;;;2.01;1.91;;;;;;;19.53;63.36;100834.73;;;;-52
2021/10/15 01:21:53;;;;;;;1.97;1.76;;;;;;;19.53;63.41;100833.52;;;;-52
2021/10/15 01:24:53;;;;;;;2.10;1.90;;;;;;;19.52;63.37;100830.64;;;;-52
2021/10/15 01:27:53;;;;;;;2.37;2.01;;;;;;;19.51;63.34;100831.13;;;;-52
2021/10/15 01:30:53;;;;;;;1.95;1.81;;;;;;;19.49;63.32;100826.30;;;;-52
2021/10/15 01:33:53;;;;;;;1.91;1.81;;;;;;;19.50;63.39;100823.95;;;;-52
2021/10/15 01:36:53;;;;;;;2.34;2.05;;;;;;;19.49;63.38;100813.06;;;;-60
2021/10/15 01:39:53;;;;;;;2.09;1.90;;;;;;;19.49;63.33;100814.77;;;;-60
2021/10/15 01:42:56;;;;;;;1.90;1.80;;;;;;;19.49;63.31;100805.98;;;;-52
2021/10/15 01:45:53;;;;;;;1.90;1.80;;;;;;;19.50;63.26;100806.06;;;;-53
2021/10/15 01:48:53;;;;;;;1.95;1.80;;;;;;;19.49;63.26;100805.58;;;;-53
2021/10/15 01:51:53;;;;;;;2.09;1.89;;;;;;;19.48;63.24;100801.16;;;;-58
2021/10/15 01:54:53;;;;;;;1.96;1.86;;;;;;;19.48;63.26;100797.02;;;;-59
2021/10/15 01:57:53;;;;;;;2.07;1.87;;;;;;;19.45;63.25;100791.80;;;;-52
2021/10/15 02:00:53;;;;;;;2.01;1.85;;;;;;;19.45;63.29;100788.38;;;;-52
2021/10/15 02:03:53;;;;;;;1.82;1.72;;;;;;;19.45;63.31;100782.77;;;;-51
2021/10/15 02:06:53;;;;;;;2.14;1.92;;;;;;;19.45;63.23;100780.74;;;;-51
2021/10/15 02:09:53;;;;;;;1.98;1.85;;;;;;;19.45;63.25;100779.84;;;;-51
2021/10/15 02:12:53;;;;;;;1.95;1.85;;;;;;;19.42;63.33;100775.52;;;;-51
2021/10/15 02:15:53;;;;;;;1.98;1.88;;;;;;;19.43;63.29;100777.14;;;;-51
2021/10/15 02:18:53;;;;;;;2.06;1.93;;;;;;;19.43;63.23;100775.84;;;;-51
2021/10/15 02:21:53;;;;;;;2.05;1.85;;;;;;;19.44;63.21;100770.88;;;;-58
2021/10/15 02:24:53;;;;;;;2.09;1.89;;;;;;;19.42;63.23;100766.58;;;;-57
2021/10/15 02:27:53;;;;;;;1.88;1.78;;;;;;;19.42;63.18;100767.12;;;;-52
2021/10/15 02:30:53;;;;;;;1.85;1.75;;;;;;;19.40;63.20;100764.60;;;;-52
2021/10/15 02:33:53;;;;;;;2.00;1.90;;;;;;;19.40;63.19;100756.69;;;;-51
2021/10/15 02:36:53;;;;;;;1.87;1.77;;;;;;;19.39;63.21;100754.41;;;;-52
2021/10/15 02:39:53;;;;;;;1.91;1.81;;;;;;;19.40;63.18;100745.47;;;;-52
2021/10/15 02:42:53;;;;;;;2.01;1.90;;;;;;;19.40;63.16;100742.14;;;;-51
2021/10/15 02:45:53;;;;;;;2.02;1.88;;;;;;;19.38;63.20;100742.72;;;;-51
2021/10/15 02:48:53;;;;;;;1.98;1.81;;;;;;;19.39;63.14;100738.81;;;;-51
2021/10/15 02:51:53;;;;;;;1.94;1.81;;;;;;;19.37;63.19;100737.89;;;;-59
2021/10/15 02:54:53;;;;;;;2.24;1.80;;;;;;;19.36;63.17;100732.94;;;;-59
2021/10/15 02:57:53;;;;;;;1.89;1.79;;;;;;;19.37;63.11;100730.33;;;;-53
2021/10/15 03:00:53;;;;;;;1.94;1.80;;;;;;;19.36;63.15;100728.52;;;;-60
2021/10/15 03:03:53;;;;;;;1.97;1.81;;;;;;;19.36;63.08;100728.71;;;;-59
2021/10/15 03:06:53;;;;;;;2.05;1.85;;;;;;;19.35;63.10;100726.98;;;;-59
2021/10/15 03:09:53;;;;;;;1.97;1.87;;;;;;;19.34;63.11;100725.92;;;;-51
2021/10/15 03:12:53;;;;;;;1.83;1.73;;;;;;;19.34;63.08;100723.98;;;;-51
2021/10/15 03:15:53;;;;;;;1.91;1.80;;;;;;;19.35;63.03;100727.39;;;;-51
2021/10/15 03:18:53;;;;;;;1.90;1.79;;;;;;;19.34;63.08;100728.98;;;;-52
2021/10/15 03:21:53;;;;;;;1.87;1.77;;;;;;;19.34;63.04;100735.44;;;;-52
2021/10/15 03:24:53;;;;;;;1.77;1.67;;;;;;;19.32;63.09;100734.00;;;;-52
2021/10/15 03:27:53;;;;;;;2.01;1.91;;;;;;;19.33;63.01;100735.17;;;;-52
2021/10/15 03:30:53;;;;;;;1.81;1.71;;;;;;;19.34;63.01;100734.34;;;;-52
2021/10/15 03:33:53;;;;;;;1.89;1.79;;;;;;;19.31;63.03;100732.95;;;;-52
2021/10/15 03:36:53;;;;;;;1.90;1.80;;;;;;;19.31;63.05;100728.31;;;;-51
2021/10/15 03:39:53;;;;;;;1.91;1.81;;;;;;;19.29;63.06;100730.48;;;;-59
2021/10/15 03:42:53;;;;;;;1.90;1.80;;;;;;;19.31;63.01;100731.08;;;;-57
2021/10/15 03:45:53;;;;;;;1.91;1.81;;;;;;;19.29;62.98;100733.41;;;;-59
2021/10/15 03:48:53;;;;;;;2.03;1.83;;;;;;;19.30;62.94;100730.76;;;;-59
2021/10/15 03:51:53;;;;;;;1.79;1.69;;;;;;;19.29;62.93;100726.83;;;;-60
2021/10/15 03:54:53;;;;;;;1.84;1.74;;;;;;;19.28;62.96;100731.55;;;;-52
2021/10/15 03:57:53;;;;;;;2.02;1.82;;;;;;;19.29;62.91;100733.98;;;;-51
2021/10/15 04:00:53;;;;;;;1.87;1.77;;;;;;;19.28;62.89;100731.87;;;;-51
2021/10/15 04:03:53;;;;;;;1.97;1.80;;;;;;;19.28;62.89;100733.09;;;;-51
2021/10/15 04:06:53;;;;;;;1.72;1.61;;;;;;;19.28;62.86;100731.14;;;;-52
2021/10/15 04:09:53;;;;;;;1.90;1.80;;;;;;;19.26;62.88;100725.91;;;;-51
2021/10/15 04:12:53;;;;;;;1.79;1.69;;;;;;;19.26;62.91;100721.91;;;;-59
2021/10/15 04:15:53;;;;;;;1.83;1.73;;;;;;;19.25;62.87;100718.00;;;;-59
2021/10/15 04:18:53;;;;;;;1.90;1.79;;;;;;;19.25;62.85;100714.03;;;;-60
2021/10/15 04:21:53;;;;;;;1.93;1.83;;;;;;;19.25;62.87;100715.89;;;;-59
2021/10/15 04:24:53;;;;;;;1.90;1.80;;;;;;;19.24;62.94;100717.61;;;;-51
2021/10/15 04:27:53;;;;;;;1.69;1.59;;;;;;;19.23;62.88;100714.73;;;;-51
2021/10/15 04:30:53;;;;;;;1.73;1.63;;;;;;;19.23;62.92;100713.84;;;;-52
2021/10/15 04:33:53;;;;;;;1.79;1.67;;;;;;;19.22;62.91;100711.33;;;;-51
2021/10/15 04:36:53;;;;;;;1.80;1.70;;;;;;;19.22;62.93;100712.70;;;;-52
2021/10/15 04:39:53;;;;;;;1.81;1.71;;;;;;;19.19;63.14;100707.94;;;;-59
2021/10/15 04:42:53;;;;;;;1.83;1.73;;;;;;;19.18;63.22;100708.92;;;;-59
2021/10/15 04:45:53;;;;;;;1.85;1.75;;;;;;;19.17;63.20;100701.69;;;;-59
2021/10/15 04:48:53;;;;;;;1.79;1.69;;;;;;;19.19;63.20;100700.79;;;;-59
2021/10/15 04:51:53;;;;;;;1.73;1.63;;;;;;;19.21;63.19;100699.44;;;;-59
2021/10/15 04:54:53;;;;;;;1.80;1.70;;;;;;;19.23;63.30;100695.72;;;;-52
2021/10/15 04:57:53;;;;;;;1.69;1.59;;;;;;;19.25;63.18;100698.42;;;;-52
2021/10/15 05:00:53;;;;;;;1.79;1.69;;;;;;;19.26;63.45;100702.11;;;;-52
2021/10/15 05:03:53;;;;;;;1.70;1.60;;;;;;;19.28;63.39;100696.69;;;;-59
2021/10/15 05:06:57;;;;;;;2.17;1.69;;;;;;;19.32;63.39;100698.03;;;;-60
2021/10/15 05:09:53;;;;;;;1.70;1.60;;;;;;;19.35;63.39;100692.85;;;;-60
2021/10/15 05:12:53;;;;;;;1.89;1.79;;;;;;;19.37;63.40;100692.71;;;;-59
2021/10/15 05:15:53;;;;;;;1.61;1.51;;;;;;;19.41;63.38;100691.78;;;;-59
2021/10/15 05:18:53;;;;;;;1.70;1.60;;;;;;;19.43;63.40;100687.08;;;;-52
2021/10/15 05:21:53;;;;;;;1.81;1.69;;;;;;;19.45;63.44;100692.63;;;;-52
2021/10/15 05:24:53;;;;;;;1.78;1.67;;;;;;;19.47;63.42;100692.91;;;;-59
2021/10/15 05:27:53;;;;;;;1.65;1.55;;;;;;;19.48;63.42;100691.83;;;;-59
2021/10/15 05:30:54;;;;;;;1.72;1.62;;;;;;;19.51;63.42;100686.77;;;;-60
2021/10/15 05:33:53;;;;;;;1.71;1.61;;;;;;;19.52;63.43;100688.79;;;;-60
2021/10/15 05:36:53;;;;;;;1.61;1.51;;;;;;;19.54;63.43;100687.35;;;;-52
2021/10/15 05:39:53;;;;;;;1.70;1.60;;;;;;;19.55;63.42;100684.37;;;;-52
2021/10/15 05:42:53;;;;;;;1.69;1.59;;;;;;;19.55;63.42;100679.33;;;;-51
2021/10/15 05:45:53;;;;;;;1.62;1.52;;;;;;;19.57;63.33;100683.48;;;;-51
2021/10/15 05:48:53;;;;;;;1.88;1.43;;;;;;;19.57;63.35;100684.22;;;;-60
2021/10/15 05:52:02;;;;;;;1.58;1.48;;;;;;;19.57;63.32;100683.89;;;;-60
2021/10/15 05:54:56;;;;;;;1.69;1.59;;;;;;;19.58;63.38;100686.49;;;;-51
2021/10/15 06:01:56;;;;;;;1.74;1.63;;;;;;;19.60;63.22;100690.41;;;;-60
2021/10/15 06:15:53;;;;;;;1.69;1.59;;;;;;;19.59;63.22;100688.30;;;;-59
2021/10/15 06:18:58;;;;;;;1.70;1.60;;;;;;;19.59;63.22;100686.52;;;;-60
2021/10/15 06:21:53;;;;;;;1.67;1.57;;;;;;;19.60;63.17;100689.20;;;;-60
2021/10/15 06:24:53;;;;;;;1.68;1.58;;;;;;;19.59;63.23;100688.14;;;;-57
2021/10/15 06:27:54;;;;;;;1.68;1.58;;;;;;;19.59;63.22;100687.73;;;;-52
2021/10/15 06:30:53;;;;;;;1.47;1.37;;;;;;;19.58;63.22;100690.88;;;;-59
2021/10/15 06:33:53;;;;;;;2.16;1.60;;;;;;;19.58;63.18;100692.67;;;;-59
2021/10/15 06:36:52;;;;;;;1.60;1.50;;;;;;;19.58;63.22;100691.13;;;;-52
2021/10/15 06:39:53;;;;;;;1.69;1.59;;;;;;;19.58;63.20;100696.25;;;;-59
2021/10/15 06:42:53;;;;;;;1.54;1.44;;;;;;;19.57;63.12;100695.77;;;;-60
2021/10/15 06:45:53;;;;;;;1.70;1.60;;;;;;;19.58;63.20;100698.45;;;;-58
2021/10/15 06:48:53;;;;;;;1.63;1.53;;;;;;;19.57;63.19;100694.35;;;;-59
2021/10/15 06:51:53;;;;;;;1.60;1.50;;;;;;;19.56;63.19;100689.56;;;;-59
2021/10/15 06:54:53;;;;;;;1.69;1.59;;;;;;;19.56;63.17;100691.84;;;;-51
2021/10/15 06:57:53;;;;;;;1.73;1.60;;;;;;;19.56;63.22;100690.70;;;;-52
2021/10/15 07:00:53;;;;;;;1.67;1.57;;;;;;;19.56;63.06;100694.36;;;;-51
2021/10/15 07:03:53;;;;;;;1.70;1.60;;;;;;;19.55;63.19;100688.80;;;;-60
2021/10/15 07:06:53;;;;;;;2.10;1.79;;;;;;;19.55;63.20;100692.58;;;;-52
2021/10/15 07:09:53;;;;;;;1.72;1.62;;;;;;;19.54;63.19;100692.63;;;;-59
2021/10/15 07:12:53;;;;;;;1.69;1.59;;;;;;;19.54;63.17;100693.52;;;;-53
2021/10/15 07:15:53;;;;;;;1.70;1.60;;;;;;;19.53;63.21;100689.05;;;;-60
2021/10/15 07:18:53;;;;;;;1.71;1.61;;;;;;;19.52;63.09;100688.55;;;;-59
2021/10/15 07:21:53;;;;;;;1.63;1.53;;;;;;;19.53;63.15;100689.77;;;;-59
2021/10/15 07:24:53;;;;;;;1.69;1.59;;;;;;;19.52;63.13;100697.97;;;;-59
2021/10/15 07:27:53;;;;;;;1.63;1.53;;;;;;;19.52;63.15;100711.14;;;;-51
2021/10/15 07:30:53;;;;;;;1.70;1.60;;;;;;;19.51;62.98;100718.47;;;;-51
2021/10/15 07:33:53;;;;;;;1.65;1.55;;;;;;;19.52;63.08;100719.84;;;;-52
2021/10/15 07:36:52;;;;;;;1.80;1.70;;;;;;;19.51;63.01;100719.20;;;;-51
2021/10/15 07:39:53;;;;;;;1.81;1.71;;;;;;;19.51;63.02;100723.18;;;;-58
2021/10/15 07:42:53;;;;;;;1.73;1.63;;;;;;;19.51;63.10;100729.28;;;;-60
2021/10/15 07:45:53;;;;;;;1.75;1.65;;;;;;;19.50;63.08;100726.08;;;;-59
2021/10/15 07:48:53;;;;;;;1.81;1.70;;;;;;;19.50;63.08;100721.36;;;;-52
2021/10/15 07:51:53;;;;;;;1.70;1.60;;;;;;;19.50;63.10;100723.64;;;;-52
2021/10/15 07:54:53;;;;;;;1.69;1.59;;;;;;;19.51;63.09;100731.20;;;;-52
2021/10/15 07:57:53;;;;;;;1.70;1.60;;;;;;;19.50;63.08;100733.55;;;;-51
2021/10/15 08:01:03;;;;;;;6.87;2.28;;;;;;;19.48;62.10;100734.67;;;;-54
2021/10/15 08:10:53;;;;;;;7.79;4.62;;;;;;;19.11;58.06;100729.89;;;;-51
2021/10/15 08:13:53;;;;;;;5.36;3.69;;;;;;;19.19;59.43;100723.70;;;;-52
2021/10/15 08:16:53;;;;;;;7.71;3.67;;;;;;;19.26;59.71;100716.00;;;;-51
2021/10/15 08:19:53;;;;;;;4.89;3.57;;;;;;;19.31;60.14;100715.80;;;;-57
2021/10/15 08:22:53;;;;;;;4.69;3.27;;;;;;;19.35;60.50;100714.06;;;;-55
2021/10/15 08:25:53;;;;;;;5.20;3.15;;;;;;;19.37;60.78;100715.38;;;;-58
2021/10/15 08:28:58;;;;;;;4.27;3.05;;;;;;;19.37;60.98;100717.82;;;;-56
2021/10/15 08:31:53;;;;;;;3.79;2.98;;;;;;;19.37;61.05;100714.08;;;;-58
2021/10/15 08:34:53;;;;;;;6.09;3.29;;;;;;;19.39;61.13;100714.59;;;;-59
2021/10/15 08:37:53;;;;;;;4.25;2.84;;;;;;;19.41;61.34;100719.25;;;;-60
2021/10/15 08:40:53;;;;;;;3.19;2.85;;;;;;;19.44;61.48;100722.92;;;;-59
2021/10/15 08:43:53;;;;;;;3.29;2.73;;;;;;;19.44;61.44;100711.70;;;;-58
2021/10/15 08:46:53;;;;;;;3.40;2.73;;;;;;;19.45;61.63;100711.73;;;;-55
2021/10/15 08:49:53;;;;;;;5.53;2.78;;;;;;;19.46;61.72;100713.95;;;;-57
2021/10/15 08:52:53;;;;;;;4.30;2.76;;;;;;;19.47;61.79;100727.52;;;;-56
2021/10/15 08:55:53;;;;;;;4.24;2.90;;;;;;;19.48;61.90;100716.47;;;;-59
2021/10/15 08:58:53;;;;;;;4.13;2.78;;;;;;;19.50;61.80;100713.31;;;;-47
2021/10/15 09:01:54;;;;;;;4.34;2.83;;;;;;;19.50;61.71;100714.21;;;;-53
2021/10/15 09:04:53;;;;;;;4.99;2.85;;;;;;;19.52;61.76;100723.66;;;;-57
2021/10/15 09:07:53;;;;;;;5.01;2.75;;;;;;;19.52;61.92;100719.59;;;;-61
2021/10/15 09:10:53;;;;;;;4.81;2.81;;;;;;;19.53;61.93;100721.09;;;;-57
2021/10/15 09:13:53;;;;;;;6.32;2.81;;;;;;;19.53;61.97;100719.14;;;;-56
2021/10/15 09:16:53;;;;;;;3.39;2.75;;;;;;;19.53;62.01;100726.67;;;;-52
2021/10/15 09:19:53;;;;;;;4.13;2.53;;;;;;;19.54;62.14;100722.63;;;;-61
2021/10/15 09:22:53;;;;;;;3.02;2.65;;;;;;;19.54;62.08;100715.80;;;;-54
2021/10/15 09:25:53;;;;;;;3.35;2.91;;;;;;;19.54;62.09;100712.14;;;;-59
2021/10/15 09:28:53;;;;;;;3.16;2.52;;;;;;;19.54;62.20;100714.41;;;;-52
2021/10/15 09:31:53;;;;;;;3.15;2.69;;;;;;;19.55;62.22;100718.59;;;;-51
2021/10/15 09:34:53;;;;;;;3.55;2.60;;;;;;;19.55;62.25;100717.05;;;;-52
2021/10/15 09:37:54;;;;;;;3.39;2.65;;;;;;;19.56;62.22;100719.89;;;;-55
2021/10/15 09:40:53;;;;;;;2.93;2.47;;;;;;;19.57;62.28;100721.67;;;;-57
2021/10/15 09:43:53;;;;;;;13.62;3.27;;;;;;;19.58;62.46;100726.57;;;;-57
2021/10/15 09:46:53;;;;;;;5.79;2.59;;;;;;;19.60;62.54;100719.77;;;;-48
2021/10/15 09:49:53;;;;;;;6.05;2.48;;;;;;;19.61;62.58;100713.58;;;;-52
2021/10/15 09:52:54;;;;;;;8.82;2.97;;;;;;;19.63;62.74;100713.39;;;;-51
2021/10/15 09:55:53;;;;;;;7.87;2.70;;;;;;;19.65;62.75;100722.16;;;;-47
2021/10/15 09:58:53;;;;;;;9.71;2.73;;;;;;;19.66;62.76;100720.39;;;;-56
2021/10/15 10:01:53;;;;;;;6.10;2.71;;;;;;;19.67;62.81;100718.69;;;;-47
2021/10/15 10:04:53;;;;;;;3.64;2.37;;;;;;;19.68;62.87;100715.21;;;;-50
2021/10/15 10:07:53;;;;;;;6.42;2.65;;;;;;;19.69;62.90;100715.69;;;;-54
2021/10/15 10:10:53;;;;;;;5.02;2.71;;;;;;;19.70;62.87;100707.94;;;;-47
2021/10/15 10:13:53;;;;;;;7.61;2.69;;;;;;;19.72;63.01;100701.55;;;;-58
2021/10/15 10:16:53;;;;;;;10.34;2.57;;;;;;;19.72;63.18;100702.03;;;;-61
2021/10/15 10:19:53;;;;;;;8.73;2.67;;;;;;;19.73;63.19;100696.33;;;;-56
2021/10/15 10:22:53;;;;;;;8.27;2.79;;;;;;;19.73;63.18;100691.86;;;;-53
2021/10/15 10:25:53;;;;;;;6.70;2.57;;;;;;;19.74;63.21;100690.34;;;;-51
2021/10/15 10:28:52;;;;;;;5.59;2.61;;;;;;;19.75;63.11;100687.16;;;;-54
2021/10/15 10:31:53;;;;;;;7.96;2.57;;;;;;;19.74;63.11;100688.30;;;;-60
2021/10/15 10:34:53;;;;;;;6.40;2.71;;;;;;;19.73;62.18;100690.06;;;;-58
2021/10/15 10:37:55;;;;;;;9.51;2.59;;;;;;;19.71;62.76;100685.66;;;;-61
2021/10/15 10:40:52;;;;;;;7.41;2.71;;;;;;;19.69;62.69;100682.14;;;;-57
2021/10/15 10:44:53;;;;;;;6.05;2.59;;;;;;;19.67;62.74;100685.86;;;;-61
2021/10/15 10:47:52;;;;;;;7.33;2.50;;;;;;;19.67;62.73;100685.51;;;;-60
2021/10/15 10:50:53;;;;;;;5.51;2.45;;;;;;;19.65;62.73;100685.36;;;;-60
2021/10/15 10:53:53;;;;;;;4.91;2.52;;;;;;;19.64;62.71;100684.20;;;;-51
2021/10/15 10:56:52;;;;;;;7.13;2.39;;;;;;;19.61;62.74;100686.45;;;;-53
2021/10/15 10:59:53;;;;;;;6.57;2.51;;;;;;;19.62;62.62;100688.73;;;;-51
2021/10/15 11:02:53;;;;;;;5.15;2.48;;;;;;;19.61;62.74;100690.81;;;;-57
2021/10/15 11:05:53;;;;;;;4.49;2.35;;;;;;;19.59;62.77;100692.20;;;;-53
2021/10/15 11:08:53;;;;;;;4.43;2.60;;;;;;;19.59;62.70;100681.53;;;;-51
2021/10/15 11:11:53;;;;;;;4.41;2.39;;;;;;;19.59;62.68;100682.02;;;;-51
2021/10/15 11:14:54;;;;;;;4.53;2.32;;;;;;;19.57;62.76;100679.23;;;;-63
2021/10/15 11:17:53;;;;;;;3.30;2.31;;;;;;;19.58;62.73;100677.72;;;;-58
2021/10/15 11:20:54;;;;;;;6.05;2.33;;;;;;;19.58;62.72;100672.02;;;;-51
2021/10/15 11:23:53;;;;;;;5.50;2.21;;;;;;;19.59;62.77;100666.36;;;;-59
2021/10/15 11:26:54;;;;;;;3.89;2.37;;;;;;;19.58;62.79;100663.16;;;;-52
2021/10/15 11:29:53;;;;;;;5.51;2.41;;;;;;;19.57;62.78;100658.29;;;;-52
2021/10/15 11:32:53;;;;;;;3.97;2.39;;;;;;;19.57;62.75;100656.14;;;;-52
2021/10/15 11:35:53;;;;;;;5.49;2.39;;;;;;;19.55;62.76;100651.36;;;;-60
2021/10/15 11:38:53;;;;;;;4.89;2.35;;;;;;;19.53;62.88;100649.88;;;;-52
2021/10/15 11:41:52;;;;;;;4.97;2.25;;;;;;;19.54;62.74;100644.59;;;;-57
2021/10/15 11:44:52;;;;;;;4.75;2.32;;;;;;;19.52;62.82;100645.78;;;;-57
2021/10/15 11:47:52;;;;;;;3.84;2.27;;;;;;;19.51;62.85;100646.04;;;;-52
2021/10/15 11:50:53;;;;;;;4.87;2.37;;;;;;;19.50;62.86;100635.61;;;;-60
2021/10/15 11:53:53;;;;;;;6.09;2.51;;;;;;;19.51;62.80;100633.28;;;;-52
2021/10/15 11:56:52;;;;;;;5.20;2.35;;;;;;;19.50;62.75;100633.25;;;;-52
2021/10/15 11:59:53;;;;;;;4.33;2.12;;;;;;;19.50;62.85;100633.91;;;;-57
2021/10/15 12:02:52;;;;;;;5.01;2.27;;;;;;;19.49;62.77;100634.56;;;;-52
2021/10/15 12:05:53;;;;;;;3.54;2.11;;;;;;;19.48;62.83;100635.83;;;;-52
2021/10/15 12:08:52;;;;;;;3.42;2.41;;;;;;;19.48;62.81;100639.90;;;;-52
2021/10/15 12:11:53;;;;;;;3.45;2.29;;;;;;;19.47;62.84;100642.83;;;;-52
2021/10/15 12:14:52;;;;;;;3.61;2.12;;;;;;;19.46;62.88;100641.94;;;;-52
2021/10/15 12:17:53;;;;;;;2.53;2.28;;;;;;;19.45;62.90;100643.54;;;;-51
2021/10/15 12:20:53;;;;;;;2.93;2.15;;;;;;;19.45;62.90;100640.45;;;;-51
2021/10/15 12:23:53;;;;;;;4.54;2.29;;;;;;;19.45;62.89;100635.25;;;;-59
2021/10/15 12:26:53;;;;;;;2.41;2.10;;;;;;;19.45;62.82;100633.70;;;;-60
2021/10/15 12:29:52;;;;;;;3.29;2.28;;;;;;;19.44;62.87;100634.17;;;;-60
2021/10/15 12:32:52;;;;;;;3.83;2.21;;;;;;;19.43;62.93;100629.54;;;;-59
2021/10/15 12:35:52;;;;;;;3.13;2.07;;;;;;;19.43;62.87;100634.98;;;;-51
2021/10/15 12:38:53;;;;;;;2.74;2.09;;;;;;;19.42;62.94;100638.70;;;;-52
2021/10/15 12:41:52;;;;;;;2.42;2.11;;;;;;;19.41;62.89;100633.42;;;;-51
2021/10/15 12:44:53;;;;;;;2.60;2.09;;;;;;;19.41;62.93;100628.80;;;;-51
2021/10/15 12:47:52;;;;;;;2.87;2.13;;;;;;;19.40;62.95;100628.71;;;;-52
2021/10/15 12:50:52;;;;;;;2.33;2.13;;;;;;;19.40;62.94;100627.47;;;;-52
2021/10/15 12:53:53;;;;;;;3.90;2.29;;;;;;;19.39;62.87;100627.47;;;;-56
2021/10/15 12:56:52;;;;;;;5.01;2.15;;;;;;;19.39;63.06;100623.57;;;;-51
2021/10/15 12:59:52;;;;;;;3.25;2.19;;;;;;;19.44;63.06;100625.72;;;;-57
2021/10/15 13:02:53;;;;;;;7.85;2.31;;;;;;;19.46;63.08;100624.11;;;;-57
2021/10/15 13:05:54;;;;;;;5.10;2.40;;;;;;;19.47;63.08;100621.28;;;;-59
2021/10/15 13:08:52;;;;;;;9.21;3.12;;;;;;;19.49;63.08;100624.55;;;;-57
2021/10/15 13:11:52;;;;;;;6.71;3.96;;;;;;;19.54;62.47;100624.27;;;;-54
2021/10/15 13:14:52;;;;;;;4.47;3.04;;;;;;;19.57;63.02;100612.36;;;;-57
2021/10/15 13:17:52;;;;;;;3.90;2.84;;;;;;;19.61;63.13;100602.04;;;;-59
2021/10/15 13:20:53;;;;;;;5.26;2.97;;;;;;;19.65;63.22;100601.77;;;;-64
2021/10/15 13:23:52;;;;;;;5.09;2.72;;;;;;;19.70;63.31;100599.97;;;;-60
2021/10/15 13:26:52;;;;;;;5.22;2.90;;;;;;;19.76;63.68;100603.91;;;;-57
2021/10/15 13:29:52;;;;;;;4.57;2.97;;;;;;;19.81;63.88;100607.36;;;;-62
2021/10/15 13:32:52;;;;;;;4.19;2.99;;;;;;;19.86;64.00;100604.41;;;;-52
2021/10/15 13:35:55;;;;;;;8.75;3.41;;;;;;;19.89;63.57;100604.57;;;;-50
2021/10/15 13:38:53;;;;;;;8.93;5.45;;;;;;;19.91;63.01;100596.45;;;;-48
2021/10/15 13:42:10;;;;;;;11.83;4.71;;;;;;;19.96;63.49;100599.16;;;;-48
2021/10/15 13:45:13;;;;;;;6.67;4.06;;;;;;;20.00;63.83;100600.24;;;;-52
2021/10/15 13:49:44;;;;;;;10.93;4.21;;;;;;;20.04;64.08;100600.19;;;;-54
2021/10/15 13:51:52;;;;;;;5.22;3.73;;;;;;;20.08;63.60;100601.92;;;;-57
2021/10/15 13:54:53;;;;;;;8.46;4.01;;;;;;;20.11;63.96;100604.80;;;;-55
2021/10/15 13:57:54;;;;;;;8.09;3.77;;;;;;;20.16;64.05;100602.22;;;;-56
2021/10/15 14:00:58;;;;;;;7.10;3.83;;;;;;;20.21;64.33;100595.48;;;;-53
2021/10/15 14:06:53;;;;;;;7.96;3.91;;;;;;;20.27;63.87;100592.50;;;;-57
2021/10/15 14:09:53;;;;;;;8.55;3.60;;;;;;;20.29;63.84;100589.17;;;;-55
2021/10/15 14:12:53;;;;;;;6.15;3.23;;;;;;;20.30;63.93;100586.84;;;;-57
2021/10/15 14:15:52;;;;;;;8.11;3.79;;;;;;;20.32;63.87;100587.17;;;;-57
2021/10/15 14:18:52;;;;;;;6.35;3.69;;;;;;;20.34;63.84;100595.48;;;;-58
2021/10/15 14:21:52;;;;;;;6.68;3.31;;;;;;;20.37;63.79;100594.27;;;;-60
2021/10/15 14:24:53;;;;;;;7.39;3.32;;;;;;;20.39;63.76;100587.52;;;;-56
2021/10/15 14:27:53;;;;;;;5.61;3.37;;;;;;;20.41;63.77;100587.86;;;;-60
2021/10/15 14:30:52;;;;;;;6.35;3.40;;;;;;;20.42;63.73;100586.41;;;;-54
2021/10/15 14:33:53;;;;;;;4.95;3.06;;;;;;;20.44;63.49;100592.45;;;;-56
2021/10/15 14:36:52;;;;;;;5.84;3.52;;;;;;;20.47;63.75;100591.05;;;;-64
2021/10/15 14:39:52;;;;;;;6.59;3.30;;;;;;;20.48;63.64;100586.33;;;;-66
2021/10/15 14:42:53;;;;;;;7.64;3.18;;;;;;;20.50;63.42;100580.23;;;;-62
2021/10/15 14:45:53;;;;;;;4.67;3.26;;;;;;;20.51;63.35;100584.09;;;;-62
2021/10/15 14:48:53;;;;;;;7.35;3.30;;;;;;;20.50;63.15;100585.44;;;;-54
2021/10/15 14:51:52;;;;;;;4.31;3.15;;;;;;;20.51;63.19;100587.01;;;;-54
2021/10/15 14:54:52;;;;;;;8.45;3.37;;;;;;;20.52;63.21;100585.31;;;;-53
2021/10/15 14:57:53;;;;;;;9.46;3.21;;;;;;;20.54;63.20;100589.39;;;;-54
2021/10/15 15:00:55;;;;;;;7.23;3.19;;;;;;;20.55;63.14;100588.25;;;;-54
2021/10/15 15:03:52;;;;;;;12.57;3.91;;;;;;;20.53;62.11;100585.31;;;;-52
2021/10/15 15:06:52;;;;;;;8.17;3.65;;;;;;;20.55;62.40;100585.40;;;;-65
2021/10/15 15:09:53;;;;;;;8.25;3.64;;;;;;;20.56;62.49;100581.89;;;;-57
2021/10/15 15:12:53;;;;;;;6.75;3.51;;;;;;;20.58;62.70;100585.83;;;;-57
2021/10/15 15:15:52;;;;;;;4.88;3.25;;;;;;;20.61;62.79;100587.79;;;;-59
2021/10/15 15:18:53;;;;;;;7.93;3.48;;;;;;;20.64;62.88;100593.76;;;;-58
2021/10/15 15:21:55;;;;;;;8.39;3.73;;;;;;;20.66;62.83;100592.70;;;;-62
2021/10/15 15:24:53;;;;;;;5.18;3.31;;;;;;;20.67;62.35;100592.21;;;;-63
2021/10/15 15:27:53;;;;;;;9.35;3.41;;;;;;;20.69;62.48;100591.51;;;;-57
2021/10/15 15:30:52;;;;;;;6.95;3.31;;;;;;;20.71;62.61;100591.58;;;;-54
2021/10/15 15:33:53;;;;;;;6.30;3.49;;;;;;;20.74;62.75;100598.04;;;;-52
2021/10/15 15:36:53;;;;;;;7.80;3.35;;;;;;;20.75;62.86;100596.80;;;;-59
2021/10/15 15:39:53;;;;;;;7.52;3.31;;;;;;;20.77;62.81;100596.65;;;;-59
2021/10/15 15:42:52;;;;;;;9.56;3.43;;;;;;;20.78;62.86;100600.50;;;;-53
2021/10/15 15:45:53;;;;;;;6.75;3.23;;;;;;;20.80;62.95;100601.97;;;;-56
2021/10/15 15:48:52;;;;;;;5.60;3.22;;;;;;;20.82;62.97;100608.24;;;;-56
2021/10/15 15:51:52;;;;;;;7.98;3.33;;;;;;;20.83;62.99;100604.40;;;;-53
2021/10/15 15:54:57;;;;;;;6.34;3.19;;;;;;;20.84;62.46;100603.28;;;;-58
2021/10/15 15:57:52;;;;;;;6.03;3.39;;;;;;;20.84;62.58;100602.95;;;;-52
2021/10/15 16:00:52;;;;;;;5.29;2.99;;;;;;;20.85;62.72;100609.55;;;;-54
2021/10/15 16:03:54;;;;;;;5.01;3.08;;;;;;;20.86;62.81;100615.42;;;;-56
2021/10/15 16:06:52;;;;;;;5.19;2.87;;;;;;;20.87;62.80;100617.45;;;;-53
2021/10/15 16:09:52;;;;;;;7.25;3.13;;;;;;;20.89;62.92;100617.87;;;;-60
2021/10/15 16:12:53;;;;;;;14.66;3.15;;;;;;;20.88;62.83;100615.27;;;;-51
2021/10/15 16:15:52;;;;;;;5.56;3.16;;;;;;;20.92;62.07;100614.85;;;;-52
2021/10/15 16:18:52;;;;;;;5.71;2.98;;;;;;;20.93;62.42;100613.89;;;;-51
2021/10/15 16:21:52;;;;;;;5.82;2.82;;;;;;;20.96;62.72;100617.96;;;;-55
2021/10/15 16:24:53;;;;;;;6.99;3.23;;;;;;;20.94;61.75;100618.80;;;;-51
2021/10/15 16:27:53;;;;;;;5.28;3.07;;;;;;;20.90;60.99;100626.20;;;;-54
2021/10/15 16:30:52;;;;;;;9.10;3.37;;;;;;;20.86;60.42;100625.61;;;;-52
2021/10/15 16:33:52;;;;;;;5.18;3.10;;;;;;;20.86;60.47;100630.58;;;;-57
2021/10/15 16:36:52;;;;;;;7.25;2.99;;;;;;;20.90;61.32;100632.06;;;;-51
2021/10/15 16:39:52;;;;;;;6.60;2.80;;;;;;;20.92;61.39;100635.70;;;;-51
2021/10/15 16:42:52;;;;;;;6.29;2.81;;;;;;;20.93;61.48;100633.28;;;;-64
2021/10/15 16:45:53;;;;;;;5.63;2.99;;;;;;;20.95;61.62;100634.59;;;;-64
2021/10/15 16:48:53;;;;;;;6.01;2.76;;;;;;;20.95;61.63;100637.27;;;;-64
2021/10/15 16:51:53;;;;;;;6.53;2.94;;;;;;;20.97;61.70;100640.55;;;;-64
2021/10/15 16:54:53;;;;;;;4.33;2.76;;;;;;;20.98;61.64;100639.64;;;;-64
2021/10/15 16:57:54;;;;;;;5.59;2.90;;;;;;;20.98;61.79;100641.54;;;;-57
2021/10/15 17:00:52;;;;;;;5.75;2.99;;;;;;;20.98;61.71;100636.32;;;;-54
2021/10/15 17:03:52;;;;;;;5.35;3.01;;;;;;;20.98;61.79;100638.44;;;;-51
2021/10/15 17:06:52;;;;;;;4.07;2.79;;;;;;;20.99;61.83;100649.27;;;;-63